PBF weather

Punta Bufeo Airport
Ensenada, Baja California, Mexico

Public forecast

Using degrees Celsius for public forecast. Weather courtesy of forecast.io.

Closest aviation weather report (METAR) to Punta Bufeo Airport

Closest report is (Old) Puerto PeƱasco Airport, 99.2 nm (183.7 km) NNE. Retrieved UTC (0 seconds ago):

Closest aviation forecast (TAF) to Punta Bufeo Airport

Closest forecast is General Ignacio P. Garcia International Airport, 184.2 nm (341.1 km) ESE. Retrieved 2020/05/26 18:54 UTC (2 hours ago):

TAF MMHO 261650Z 2618/2718 24010KT P6SM SCT200 FM270400 24005KT P6SM SCT200 FM271800 24010KT P6SM SCT200